createdAt,value
2022-08-11T00:01:59.450Z,2.30
2022-08-11T00:04:36.059Z,1.80
2022-08-11T00:07:05.797Z,2.03
2022-08-11T00:09:39.022Z,2.07
2022-08-11T00:12:13.899Z,1.70
2022-08-11T00:14:40.982Z,2.20
2022-08-11T00:17:15.839Z,1.97
2022-08-11T00:20:14.070Z,1.80
2022-08-11T00:22:34.225Z,1.83
2022-08-11T00:25:10.235Z,2.07
2022-08-11T00:27:39.383Z,1.50
2022-08-11T00:30:07.564Z,1.60
2022-08-11T00:32:35.274Z,1.90
2022-08-11T00:35:55.153Z,1.83
2022-08-11T00:37:54.679Z,1.77
2022-08-11T00:40:33.225Z,1.90
2022-08-11T00:43:24.607Z,1.77
2022-08-11T00:46:16.911Z,2.17
2022-08-11T00:49:08.886Z,1.70
2022-08-11T00:52:09.482Z,1.57
2022-08-11T00:55:07.386Z,2.00
2022-08-11T00:57:59.290Z,1.93
2022-08-11T01:00:32.224Z,2.00
2022-08-11T01:03:07.731Z,1.97
2022-08-11T01:06:22.988Z,2.20
2022-08-11T01:09:22.790Z,2.00
2022-08-11T01:12:04.843Z,2.10
2022-08-11T01:15:09.162Z,2.03
2022-08-11T01:18:29.854Z,1.60
2022-08-11T01:21:40.394Z,2.00
2022-08-11T01:24:27.826Z,1.67
2022-08-11T01:27:37.298Z,2.30
2022-08-11T01:30:42.135Z,2.03
2022-08-11T01:33:51.970Z,2.10
2022-08-11T01:36:45.654Z,2.10
2022-08-11T01:39:46.503Z,2.30
2022-08-11T01:43:05.248Z,1.80
2022-08-11T01:45:43.075Z,2.37
2022-08-11T01:48:29.012Z,2.13
2022-08-11T01:51:17.233Z,2.00
2022-08-11T01:54:00.614Z,2.00
2022-08-11T01:56:38.388Z,2.10
2022-08-11T01:59:17.075Z,2.27
2022-08-11T02:02:20.585Z,2.10
2022-08-11T02:05:07.060Z,2.47
2022-08-11T02:07:49.620Z,2.17
2022-08-11T02:10:50.642Z,2.03
2022-08-11T02:13:47.360Z,2.03
2022-08-11T02:16:48.733Z,1.97
2022-08-11T02:19:36.867Z,2.13
2022-08-11T02:22:38.100Z,2.30
2022-08-11T02:25:08.524Z,2.10
2022-08-11T02:27:43.801Z,2.73
2022-08-11T02:30:23.018Z,2.37
2022-08-11T02:33:23.518Z,2.30
2022-08-11T02:35:58.222Z,2.33
2022-08-11T02:38:51.591Z,2.50
2022-08-11T02:41:59.847Z,2.60
2022-08-11T02:44:49.972Z,2.43
2022-08-11T02:48:11.118Z,2.30
2022-08-11T02:50:49.302Z,2.63
2022-08-11T02:53:39.209Z,2.40
2022-08-11T02:56:22.858Z,2.50
2022-08-11T02:59:20.354Z,2.60
2022-08-11T03:02:04.711Z,2.53
2022-08-11T03:04:51.338Z,2.47
2022-08-11T03:07:28.722Z,2.10
2022-08-11T03:10:09.984Z,2.30
2022-08-11T03:13:08.191Z,2.67
2022-08-11T03:16:08.964Z,2.57
2022-08-11T03:18:47.199Z,2.90
2022-08-11T03:22:02.920Z,2.70
2022-08-11T03:24:31.499Z,2.50
2022-08-11T03:27:11.085Z,2.60
2022-08-11T03:29:46.709Z,2.67
2022-08-11T03:32:29.158Z,2.80
2022-08-11T03:35:01.332Z,2.30
2022-08-11T03:38:02.533Z,2.70
2022-08-11T03:41:05.395Z,3.30
2022-08-11T03:44:06.785Z,2.83
2022-08-11T03:46:47.711Z,2.60
2022-08-11T03:49:51.734Z,2.90
2022-08-11T03:52:47.861Z,2.87
2022-08-11T03:55:52.038Z,3.07
2022-08-11T03:58:46.183Z,2.87
2022-08-11T04:01:29.560Z,3.17
2022-08-11T04:04:23.510Z,2.77
2022-08-11T04:07:20.055Z,2.80
2022-08-11T04:10:30.475Z,3.40
2022-08-11T04:13:34.467Z,3.00
2022-08-11T04:16:24.362Z,3.10
2022-08-11T04:19:13.282Z,3.13
2022-08-11T04:22:28.228Z,3.20
2022-08-11T04:25:16.287Z,3.00
2022-08-11T04:28:09.763Z,6.13
2022-08-11T04:31:50.635Z,10.00
2022-08-11T04:34:34.638Z,3.00
2022-08-11T04:37:34.377Z,3.17
2022-08-11T04:40:31.952Z,2.83
2022-08-11T04:43:23.064Z,3.30
2022-08-11T04:46:26.259Z,3.03
2022-08-11T04:49:34.154Z,3.07
2022-08-11T04:52:47.472Z,3.40
2022-08-11T04:56:02.721Z,3.50
2022-08-11T04:58:57.670Z,3.23
2022-08-11T05:01:42.210Z,3.70
2022-08-11T05:04:52.313Z,3.10
2022-08-11T05:07:39.650Z,3.13
2022-08-11T05:10:43.495Z,3.67
2022-08-11T05:13:30.658Z,3.67
2022-08-11T05:16:18.561Z,3.77
2022-08-11T05:19:09.029Z,3.97
2022-08-11T05:21:57.381Z,3.80
2022-08-11T05:24:48.714Z,4.00
2022-08-11T05:27:35.190Z,4.50
2022-08-11T05:30:31.621Z,3.87
2022-08-11T05:33:28.121Z,4.57
2022-08-11T05:36:12.389Z,4.20
2022-08-11T05:38:58.250Z,4.10
2022-08-11T05:41:45.558Z,4.33
2022-08-11T05:44:39.609Z,4.33
2022-08-11T05:47:25.221Z,4.10
2022-08-11T05:50:13.636Z,4.30
2022-08-11T05:53:04.942Z,4.57
2022-08-11T05:56:03.138Z,4.70
2022-08-11T05:58:42.718Z,4.10
2022-08-11T06:01:13.760Z,4.30
2022-08-11T06:04:03.185Z,4.47
2022-08-11T06:06:31.185Z,3.83
2022-08-11T06:08:59.555Z,4.10
2022-08-11T06:11:44.117Z,4.10
2022-08-11T06:14:12.262Z,4.63
2022-08-11T06:16:41.809Z,4.60
2022-08-11T06:19:09.790Z,4.20
2022-08-11T06:21:37.553Z,4.37
2022-08-11T06:24:12.803Z,3.73
2022-08-11T06:27:08.712Z,4.07
2022-08-11T06:29:37.395Z,4.20
2022-08-11T06:32:05.678Z,4.13
2022-08-11T06:34:59.610Z,4.10
2022-08-11T06:37:49.747Z,4.30
2022-08-11T06:41:07.678Z,4.43
2022-08-11T06:44:00.896Z,4.30
2022-08-11T06:46:37.165Z,4.07
2022-08-11T06:49:27.809Z,4.40
2022-08-11T06:51:56.888Z,3.77
2022-08-11T06:54:34.503Z,4.10
2022-08-11T06:57:30.737Z,4.27
2022-08-11T07:00:18.073Z,3.30
2022-08-11T07:02:57.492Z,3.70
2022-08-11T07:05:43.809Z,3.83
2022-08-11T07:08:51.013Z,4.20
2022-08-11T07:12:08.116Z,3.97
2022-08-11T07:15:05.747Z,3.70
2022-08-11T07:17:37.725Z,3.90
2022-08-11T07:20:25.098Z,3.83
2022-08-11T07:23:19.679Z,3.60
2022-08-11T07:26:10.610Z,3.83
2022-08-11T07:28:55.302Z,3.90
2022-08-11T07:31:30.011Z,3.83
2022-08-11T07:34:14.624Z,3.67
2022-08-11T07:36:50.145Z,3.40
2022-08-11T07:39:28.318Z,3.50
2022-08-11T07:41:57.605Z,3.30
2022-08-11T07:44:34.270Z,3.27
2022-08-11T07:47:20.658Z,3.38
2022-08-11T07:50:08.099Z,3.28
2022-08-11T07:52:38.168Z,3.17
2022-08-11T07:55:13.445Z,3.60
2022-08-11T07:58:16.035Z,3.38
2022-08-11T08:01:10.651Z,3.22
2022-08-11T08:04:06.872Z,3.17
2022-08-11T08:06:53.158Z,3.33
2022-08-11T08:09:40.690Z,3.05
2022-08-11T08:12:27.420Z,2.97
2022-08-11T08:15:13.881Z,2.85
2022-08-11T08:18:09.015Z,2.80
2022-08-11T08:20:46.881Z,2.72
2022-08-11T08:23:13.697Z,2.90
2022-08-11T08:25:42.233Z,2.60
2022-08-11T08:28:32.620Z,2.88
2022-08-11T08:31:00.177Z,2.97
2022-08-11T08:33:30.279Z,2.67
2022-08-11T08:36:12.792Z,2.83
2022-08-11T08:38:57.520Z,2.80
2022-08-11T08:41:38.472Z,2.90
2022-08-11T08:44:35.072Z,2.33
2022-08-11T08:46:58.536Z,2.92
2022-08-11T08:49:40.531Z,2.60
2022-08-11T08:52:25.387Z,2.92
2022-08-11T08:54:58.037Z,2.80
2022-08-11T08:57:28.976Z,2.70
2022-08-11T08:59:57.610Z,2.80
2022-08-11T09:02:34.823Z,2.85
2022-08-11T09:05:03.773Z,2.75
2022-08-11T09:07:38.589Z,2.60
2022-08-11T09:10:08.541Z,2.60
2022-08-11T09:12:38.894Z,2.25
2022-08-11T09:15:09.124Z,2.40
2022-08-11T09:17:43.499Z,2.55
2022-08-11T09:20:14.838Z,2.20
2022-08-11T09:26:11.456Z,2.42
2022-08-11T09:28:38.126Z,2.95
2022-08-11T09:31:06.917Z,2.70
2022-08-11T09:33:34.133Z,2.50
2022-08-11T09:36:24.079Z,2.60
2022-08-11T09:39:10.542Z,2.55
2022-08-11T09:42:00.472Z,2.38
2022-08-11T09:44:45.866Z,2.30
2022-08-11T09:47:30.265Z,2.17
2022-08-11T09:50:02.170Z,2.25
2022-08-11T09:52:57.167Z,2.25
2022-08-11T09:55:27.480Z,2.53
2022-08-11T09:58:12.579Z,2.42
2022-08-11T10:01:02.094Z,2.35
2022-08-11T10:03:31.084Z,2.10
2022-08-11T10:06:19.235Z,2.45
2022-08-11T10:08:51.140Z,2.30
2022-08-11T10:11:23.233Z,2.15
2022-08-11T10:14:33.344Z,2.38
2022-08-11T10:17:02.670Z,2.70
2022-08-11T10:19:32.891Z,2.08
2022-08-11T10:22:18.040Z,2.38
2022-08-11T10:25:03.923Z,2.70
2022-08-11T10:28:09.003Z,2.20
2022-08-11T10:30:35.991Z,2.25
2022-08-11T10:33:37.010Z,2.20
2022-08-11T10:36:16.159Z,2.20
2022-08-11T10:38:45.834Z,2.45
2022-08-11T10:41:32.726Z,2.25
2022-08-11T10:44:02.876Z,2.08
2022-08-11T10:46:50.171Z,2.30
2022-08-11T10:49:18.815Z,2.65
2022-08-11T10:52:05.354Z,1.90
2022-08-11T10:54:52.838Z,2.30
2022-08-11T10:57:38.398Z,2.50
2022-08-11T11:00:06.968Z,2.40
2022-08-11T11:02:34.443Z,3.00
2022-08-11T11:05:15.302Z,2.30
2022-08-11T11:07:54.931Z,2.50
2022-08-11T11:10:21.604Z,2.10
2022-08-11T11:13:13.366Z,2.25
2022-08-11T11:16:01.225Z,2.50
2022-08-11T11:18:35.891Z,2.33
2022-08-11T11:21:09.117Z,2.40
2022-08-11T11:23:47.224Z,2.40
2022-08-11T11:26:45.740Z,2.30
2022-08-11T11:29:37.981Z,1.90
2022-08-11T11:32:27.682Z,2.30
2022-08-11T11:35:12.846Z,2.20
2022-08-11T11:37:41.570Z,2.30
2022-08-11T11:40:31.998Z,2.45
2022-08-11T11:42:59.876Z,2.33
2022-08-11T11:45:26.789Z,2.55
2022-08-11T11:47:59.016Z,2.63
2022-08-11T11:50:35.119Z,2.58
2022-08-11T11:53:05.720Z,2.50
2022-08-11T11:55:33.092Z,2.33
2022-08-11T11:58:20.373Z,2.20
2022-08-11T12:01:08.196Z,2.50
2022-08-11T12:03:35.825Z,2.97
2022-08-11T12:06:03.441Z,2.55
2022-08-11T12:08:31.414Z,2.65
2022-08-11T12:11:22.694Z,2.65
2022-08-11T12:13:51.830Z,2.58
2022-08-11T12:16:32.946Z,2.70
2022-08-11T12:19:06.003Z,2.42
2022-08-11T12:21:35.877Z,2.70
2022-08-11T12:24:21.826Z,3.53
2022-08-11T12:27:16.012Z,2.60
2022-08-11T12:29:44.300Z,2.45
2022-08-11T12:32:11.029Z,2.92
2022-08-11T12:34:37.583Z,2.70
2022-08-11T12:37:06.913Z,2.50
2022-08-11T12:40:10.773Z,2.40
2022-08-11T12:43:03.859Z,2.50
2022-08-11T12:45:31.514Z,2.90
2022-08-11T12:48:58.599Z,2.58
2022-08-11T12:51:28.960Z,2.60
2022-08-11T12:54:10.725Z,2.58
2022-08-11T12:56:58.530Z,2.80
2022-08-11T12:59:44.333Z,2.47
2022-08-11T13:02:38.167Z,2.70
2022-08-11T13:05:08.820Z,2.45
2022-08-11T13:07:51.154Z,2.63
2022-08-11T13:10:38.120Z,2.70
2022-08-11T13:13:55.128Z,2.30
2022-08-11T13:15:53.873Z,2.10
2022-08-11T13:18:23.318Z,2.70
2022-08-11T13:20:55.092Z,2.10
2022-08-11T13:23:23.457Z,2.30
2022-08-11T13:25:53.380Z,2.38
2022-08-11T13:28:21.984Z,1.98
2022-08-11T13:31:08.863Z,2.10
2022-08-11T13:33:40.377Z,2.72
2022-08-11T13:36:07.692Z,2.65
2022-08-11T13:38:35.062Z,2.35
2022-08-11T13:41:01.993Z,2.42
2022-08-11T13:43:29.319Z,2.33
2022-08-11T13:46:16.469Z,2.08
2022-08-11T13:48:43.209Z,2.42
2022-08-11T13:51:34.835Z,2.15
2022-08-11T13:54:06.029Z,2.05
2022-08-11T13:56:34.665Z,2.25
2022-08-11T13:59:03.416Z,2.65
2022-08-11T14:02:19.441Z,2.00
2022-08-11T14:04:35.853Z,2.00
2022-08-11T14:07:07.090Z,2.22
2022-08-11T14:09:40.213Z,2.28
2022-08-11T14:12:31.633Z,2.40
2022-08-11T14:15:10.300Z,2.40
2022-08-11T14:17:48.548Z,2.20
2022-08-11T14:20:39.151Z,2.20
2022-08-11T14:23:05.801Z,2.17
2022-08-11T14:26:00.409Z,2.03
2022-08-11T14:28:31.821Z,2.03
2022-08-11T14:31:05.165Z,2.00
2022-08-11T14:33:58.371Z,1.95
2022-08-11T14:36:23.047Z,1.67
2022-08-11T14:38:50.774Z,1.80
2022-08-11T14:41:37.216Z,1.70
2022-08-11T14:44:43.673Z,2.10
2022-08-11T14:47:23.072Z,2.58
2022-08-11T14:49:58.528Z,2.28
2022-08-11T14:52:37.400Z,1.60
2022-08-11T14:55:23.323Z,1.88
2022-08-11T14:57:55.518Z,1.88
2022-08-11T15:00:23.670Z,1.90
2022-08-11T15:03:09.135Z,2.00
2022-08-11T15:05:36.717Z,1.70
2022-08-11T15:08:03.775Z,1.70
2022-08-11T15:10:30.687Z,1.95
2022-08-11T15:12:57.809Z,1.80
2022-08-11T15:15:44.747Z,1.50
2022-08-11T15:18:17.388Z,1.95
2022-08-11T15:21:02.511Z,1.70
2022-08-11T15:23:49.584Z,1.88
2022-08-11T15:26:45.473Z,1.50
2022-08-11T15:29:32.609Z,3.70
2022-08-11T15:32:18.499Z,1.80
2022-08-11T15:35:09.301Z,1.63
2022-08-11T15:37:37.676Z,1.50
2022-08-11T15:40:51.242Z,1.60
2022-08-11T15:43:56.422Z,1.60
2022-08-11T15:46:31.524Z,1.50
2022-08-11T15:49:11.173Z,1.52
2022-08-11T15:51:42.915Z,1.60
2022-08-11T15:54:15.565Z,3.03
2022-08-11T15:56:46.451Z,2.83
2022-08-11T15:59:42.037Z,5.63
2022-08-11T16:02:16.269Z,1.60
2022-08-11T16:04:45.932Z,1.97
2022-08-11T16:07:15.720Z,2.08
2022-08-11T16:09:51.602Z,1.40
2022-08-11T16:12:32.857Z,1.30
2022-08-11T16:15:27.812Z,1.38
2022-08-11T16:18:01.980Z,1.27
2022-08-11T16:20:30.707Z,1.83
2022-08-11T16:23:02.775Z,2.87
2022-08-11T16:27:02.079Z,1.20
2022-08-11T16:28:20.751Z,1.40
2022-08-11T16:30:48.962Z,1.60
2022-08-11T16:33:22.518Z,1.30
2022-08-11T16:36:23.524Z,1.57
2022-08-11T16:38:51.368Z,1.20
2022-08-11T16:41:41.149Z,1.40
2022-08-11T16:44:36.880Z,1.23
2022-08-11T16:47:06.655Z,2.27
2022-08-11T16:49:39.383Z,1.50
2022-08-11T16:52:12.140Z,1.50
2022-08-11T16:54:40.802Z,1.38
2022-08-11T16:57:33.970Z,1.40
2022-08-11T17:00:06.236Z,1.50
2022-08-11T17:02:56.050Z,1.27
2022-08-11T17:05:54.379Z,1.23
2022-08-11T17:08:45.217Z,1.20
2022-08-11T17:11:49.584Z,1.30
2022-08-11T17:14:43.199Z,1.10
2022-08-11T17:17:15.449Z,1.20
2022-08-11T17:20:40.857Z,1.40
2022-08-11T17:22:55.128Z,1.90
2022-08-11T17:25:25.809Z,1.53
2022-08-11T17:27:54.200Z,1.30
2022-08-11T17:30:21.706Z,1.03
2022-08-11T17:33:10.109Z,1.20
2022-08-11T17:35:39.352Z,1.30
2022-08-11T17:38:12.579Z,1.30
2022-08-11T17:41:03.176Z,1.53
2022-08-11T17:43:49.767Z,1.57
2022-08-11T17:46:36.020Z,1.30
2022-08-11T17:49:07.644Z,1.10
2022-08-11T17:51:53.900Z,7.93
2022-08-11T17:54:41.690Z,1.40
2022-08-11T17:57:28.594Z,1.30
2022-08-11T17:59:57.931Z,1.47
2022-08-11T18:02:52.408Z,1.70
2022-08-11T18:05:21.637Z,1.43
2022-08-11T18:08:10.145Z,1.37
2022-08-11T18:11:02.726Z,1.37
2022-08-11T18:13:51.663Z,1.60
2022-08-11T18:16:37.462Z,1.10
2022-08-11T18:19:24.242Z,1.50
2022-08-11T18:22:15.317Z,1.80
2022-08-11T18:25:07.343Z,1.37
2022-08-11T18:27:54.803Z,1.33
2022-08-11T18:30:43.265Z,1.63
2022-08-11T18:36:41.627Z,1.80
2022-08-11T18:39:30.625Z,1.80
2022-08-11T18:42:28.779Z,1.80
2022-08-11T18:45:21.383Z,1.87
2022-08-11T18:48:12.757Z,1.80
2022-08-11T18:51:31.697Z,1.70
2022-08-11T18:54:11.225Z,1.73
2022-08-11T18:56:56.502Z,1.63
2022-08-11T18:59:46.079Z,1.50
2022-08-11T19:02:48.593Z,2.00
2022-08-11T19:06:31.665Z,3.73
2022-08-11T19:08:47.807Z,2.37
2022-08-11T19:11:33.683Z,1.63
2022-08-11T19:14:21.514Z,2.00
2022-08-11T19:17:09.529Z,1.67
2022-08-11T19:19:56.339Z,2.40
2022-08-11T19:22:42.707Z,1.93
2022-08-11T19:25:30.076Z,2.33
2022-08-11T19:28:16.351Z,1.90
2022-08-11T19:31:02.225Z,2.13
2022-08-11T19:34:02.562Z,2.03
2022-08-11T19:36:54.624Z,2.10
2022-08-11T19:39:41.051Z,1.73
2022-08-11T19:42:28.214Z,1.60
2022-08-11T19:45:14.800Z,2.00
2022-08-11T19:48:28.509Z,1.90
2022-08-11T19:51:07.925Z,8.70
2022-08-11T19:53:54.779Z,10.80
2022-08-11T19:56:40.104Z,4.23
2022-08-11T19:59:26.947Z,3.23
2022-08-11T20:02:14.319Z,2.67
2022-08-11T20:05:00.669Z,2.80
2022-08-11T20:07:46.901Z,2.23
2022-08-11T20:10:34.745Z,2.47
2022-08-11T20:13:21.876Z,2.30
2022-08-11T20:16:07.652Z,3.13
2022-08-11T20:18:54.386Z,35.07
2022-08-11T20:21:40.823Z,27.33
2022-08-11T20:24:26.918Z,11.53
2022-08-11T20:27:24.268Z,4.90
2022-08-11T20:30:11.103Z,4.47
2022-08-11T20:32:57.993Z,3.50
2022-08-11T20:35:44.491Z,3.80
2022-08-11T20:38:32.163Z,3.13
2022-08-11T20:41:19.110Z,3.47
2022-08-11T20:44:09.084Z,3.27
2022-08-11T20:46:58.269Z,3.10
2022-08-11T20:49:53.677Z,3.40
2022-08-11T20:52:47.159Z,3.53
2022-08-11T20:55:51.684Z,3.40
2022-08-11T21:01:46.252Z,2.80
2022-08-11T21:04:32.775Z,3.00
2022-08-11T21:07:28.433Z,2.87
2022-08-11T21:10:24.120Z,3.13
2022-08-11T21:13:24.073Z,3.00
2022-08-11T21:16:18.351Z,3.23
2022-08-11T21:19:16.156Z,2.90
2022-08-11T21:22:03.797Z,2.50
2022-08-11T21:24:51.743Z,2.67
2022-08-11T21:27:40.040Z,2.60
2022-08-11T21:30:25.920Z,2.70
2022-08-11T21:33:11.872Z,2.50
2022-08-11T21:35:57.338Z,2.20
2022-08-11T21:38:43.672Z,2.43
2022-08-11T21:41:29.605Z,2.43
2022-08-11T21:44:16.483Z,2.90
2022-08-11T21:47:02.821Z,2.70
2022-08-11T21:49:49.641Z,2.20
2022-08-11T21:52:35.619Z,2.33
2022-08-11T21:55:21.391Z,2.70
2022-08-11T21:58:07.924Z,2.53
2022-08-11T22:00:53.288Z,2.30
2022-08-11T22:03:44.407Z,2.83
2022-08-11T22:06:37.136Z,2.57
2022-08-11T22:09:22.374Z,2.50
2022-08-11T22:12:33.951Z,2.10
2022-08-11T22:15:13.132Z,2.30
2022-08-11T22:17:58.340Z,2.30
2022-08-11T22:20:45.729Z,2.20
2022-08-11T22:23:35.315Z,2.40
2022-08-11T22:26:22.388Z,2.47
2022-08-11T22:29:07.849Z,2.00
2022-08-11T22:31:54.925Z,2.13
2022-08-11T22:34:53.426Z,2.43
2022-08-11T22:37:42.031Z,2.27
2022-08-11T22:40:29.032Z,2.10
2022-08-11T22:43:13.788Z,2.37
2022-08-11T22:45:59.161Z,2.33
2022-08-11T22:48:47.140Z,2.50
2022-08-11T22:51:33.291Z,2.40
2022-08-11T22:54:22.810Z,2.63
2022-08-11T22:57:09.285Z,2.57
2022-08-11T22:59:55.310Z,2.67
2022-08-11T23:02:40.694Z,2.43
2022-08-11T23:05:27.208Z,2.50
2022-08-11T23:08:13.963Z,2.60
2022-08-11T23:11:00.355Z,2.87
2022-08-11T23:13:47.113Z,2.70
2022-08-11T23:16:32.319Z,2.50
2022-08-11T23:20:06.891Z,2.70
2022-08-11T23:22:23.624Z,2.50
2022-08-11T23:25:23.075Z,2.67
2022-08-11T23:28:07.995Z,2.60
2022-08-11T23:30:53.814Z,2.40
2022-08-11T23:33:40.606Z,2.20
2022-08-11T23:36:36.139Z,2.53
2022-08-11T23:39:30.790Z,2.30
2022-08-11T23:42:15.911Z,2.80
2022-08-11T23:45:00.729Z,2.53
2022-08-11T23:47:50.876Z,2.20
2022-08-11T23:50:38.288Z,2.33
2022-08-11T23:53:23.724Z,2.40
2022-08-11T23:56:08.939Z,2.30
2022-08-11T23:58:58.004Z,2.70
